createdAt,value
2023-04-16T00:02:21.368Z,25.80
2023-04-16T00:04:48.946Z,28.00
2023-04-16T00:07:16.463Z,27.40
2023-04-16T00:09:43.808Z,26.30
2023-04-16T00:12:11.192Z,35.10
2023-04-16T00:14:38.696Z,41.60
2023-04-16T00:17:06.687Z,31.20
2023-04-16T00:19:33.966Z,29.20
2023-04-16T00:22:01.164Z,28.70
2023-04-16T00:24:28.555Z,28.50
2023-04-16T00:26:56.429Z,30.50
2023-04-16T00:29:24.011Z,33.40
2023-04-16T00:31:51.840Z,34.40
2023-04-16T00:34:19.049Z,36.10
2023-04-16T00:36:46.624Z,32.80
2023-04-16T00:39:14.337Z,33.20
2023-04-16T00:41:41.726Z,40.20
2023-04-16T00:44:08.863Z,48.90
2023-04-16T00:46:38.080Z,42.80
2023-04-16T00:49:05.609Z,41.60
2023-04-16T00:51:33.470Z,41.70
2023-04-16T00:54:02.512Z,57.00
2023-04-16T00:56:29.832Z,48.90
2023-04-16T00:58:57.337Z,51.60
2023-04-16T01:04:14.508Z,50.20
2023-04-16T01:06:41.726Z,47.80
2023-04-16T01:09:11.946Z,55.90
2023-04-16T01:11:40.762Z,65.10
2023-04-16T01:14:07.929Z,54.50
2023-04-16T01:16:35.926Z,63.40
2023-04-16T01:19:04.319Z,64.10
2023-04-16T01:21:31.938Z,58.60
2023-04-16T01:24:03.963Z,50.00
2023-04-16T01:26:31.861Z,48.70
2023-04-16T01:29:00.791Z,46.90
2023-04-16T01:31:28.160Z,50.50
2023-04-16T01:33:56.242Z,57.00
2023-04-16T01:36:23.423Z,48.00
2023-04-16T01:38:50.776Z,44.90
2023-04-16T01:41:19.026Z,44.30
2023-04-16T01:43:46.369Z,47.60
2023-04-16T01:46:24.449Z,42.00
2023-04-16T01:48:55.198Z,42.80
2023-04-16T01:51:22.834Z,52.60
2023-04-16T01:53:51.834Z,38.30
2023-04-16T01:56:19.074Z,37.70
2023-04-16T01:58:49.401Z,33.10
2023-04-16T02:01:17.545Z,37.20
2023-04-16T02:03:45.355Z,36.10
2023-04-16T02:06:13.743Z,38.90
2023-04-16T02:08:41.969Z,36.90
2023-04-16T02:11:09.429Z,41.10
2023-04-16T02:13:37.264Z,39.10
2023-04-16T02:16:04.937Z,35.20
2023-04-16T02:18:32.068Z,30.00
2023-04-16T02:21:02.747Z,38.90
2023-04-16T02:23:30.065Z,34.90
2023-04-16T02:25:57.965Z,44.80
2023-04-16T02:28:25.309Z,35.30
2023-04-16T02:30:52.725Z,41.80
2023-04-16T02:33:20.680Z,37.40
2023-04-16T02:35:49.233Z,43.20
2023-04-16T02:38:16.374Z,41.10
2023-04-16T02:40:44.325Z,34.50
2023-04-16T02:43:11.527Z,36.80
2023-04-16T02:45:39.322Z,42.90
2023-04-16T02:48:09.142Z,51.90
2023-04-16T02:50:36.849Z,39.70
2023-04-16T02:53:05.071Z,42.20
2023-04-16T02:55:32.316Z,40.40
2023-04-16T02:57:59.776Z,34.80
2023-04-16T03:00:27.458Z,44.20
2023-04-16T03:02:54.865Z,51.60
2023-04-16T03:05:23.100Z,42.40
2023-04-16T03:07:51.729Z,40.80
2023-04-16T03:10:19.150Z,42.80
2023-04-16T03:12:46.824Z,50.30
2023-04-16T03:15:14.322Z,36.00
2023-04-16T03:17:41.548Z,37.00
2023-04-16T03:20:10.621Z,42.40
2023-04-16T03:22:39.407Z,33.40
2023-04-16T03:25:08.306Z,41.30
2023-04-16T03:27:36.332Z,45.00
2023-04-16T03:30:04.153Z,37.20
2023-04-16T03:32:31.600Z,37.10
2023-04-16T03:34:58.908Z,43.20
2023-04-16T03:37:26.210Z,34.70
2023-04-16T03:39:53.531Z,37.20
2023-04-16T03:42:21.199Z,30.90
2023-04-16T03:44:48.865Z,36.10
2023-04-16T03:47:16.292Z,46.70
2023-04-16T03:49:43.935Z,38.60
2023-04-16T03:52:12.118Z,46.90
2023-04-16T03:54:39.481Z,39.00
2023-04-16T03:57:07.082Z,53.40
2023-04-16T03:59:34.450Z,41.80
2023-04-16T04:02:02.083Z,45.00
2023-04-16T04:04:29.952Z,46.70
2023-04-16T04:06:57.466Z,40.10
2023-04-16T04:09:24.654Z,39.20
2023-04-16T04:11:52.355Z,45.20
2023-04-16T04:14:19.848Z,40.00
2023-04-16T04:16:47.228Z,43.40
2023-04-16T04:19:14.390Z,37.40
2023-04-16T04:21:42.123Z,33.00
2023-04-16T04:24:09.796Z,40.70
2023-04-16T04:26:36.991Z,41.70
2023-04-16T04:29:04.336Z,44.80
2023-04-16T04:31:31.658Z,49.30
2023-04-16T04:33:58.855Z,42.30
2023-04-16T04:36:28.216Z,42.20
2023-04-16T04:38:55.346Z,40.40
2023-04-16T04:41:22.814Z,38.20
2023-04-16T04:43:51.302Z,46.80
2023-04-16T04:46:18.772Z,49.50
2023-04-16T04:48:46.486Z,43.10
2023-04-16T04:51:14.358Z,60.40
2023-04-16T04:53:41.476Z,65.50
2023-04-16T04:56:12.236Z,52.80
2023-04-16T04:58:41.768Z,49.50
2023-04-16T05:01:09.105Z,64.70
2023-04-16T05:03:36.657Z,64.30
2023-04-16T05:06:04.175Z,49.70
2023-04-16T05:08:31.282Z,47.70
2023-04-16T05:10:58.477Z,49.70
2023-04-16T05:13:26.551Z,43.70
2023-04-16T05:15:53.697Z,46.90
2023-04-16T05:18:21.030Z,43.40
2023-04-16T05:20:49.012Z,43.00
2023-04-16T05:23:16.161Z,45.70
2023-04-16T05:25:43.456Z,47.10
2023-04-16T05:28:11.117Z,46.90
2023-04-16T05:30:38.443Z,50.00
2023-04-16T05:33:05.661Z,53.90
2023-04-16T05:35:33.212Z,45.70
2023-04-16T05:38:00.477Z,47.10
2023-04-16T05:40:27.687Z,42.20
2023-04-16T05:42:55.280Z,64.60
2023-04-16T05:45:22.536Z,41.80
2023-04-16T05:47:49.817Z,49.60
2023-04-16T05:50:17.284Z,51.50
2023-04-16T05:52:44.489Z,47.70
2023-04-16T05:55:11.747Z,42.90
2023-04-16T05:57:39.459Z,51.40
2023-04-16T06:00:08.379Z,45.60
2023-04-16T06:02:35.954Z,49.20
2023-04-16T06:05:04.041Z,49.40
2023-04-16T06:07:31.302Z,49.40
2023-04-16T06:09:58.465Z,54.70
2023-04-16T06:12:25.969Z,44.70
2023-04-16T06:14:53.529Z,42.90
2023-04-16T06:17:20.739Z,47.10
2023-04-16T06:19:48.308Z,39.10
2023-04-16T06:22:15.827Z,45.90
2023-04-16T06:24:43.071Z,48.60
2023-04-16T06:27:11.178Z,53.20
2023-04-16T06:29:41.705Z,51.40
2023-04-16T06:32:09.411Z,53.90
2023-04-16T06:34:38.259Z,58.60
2023-04-16T06:37:06.421Z,49.00
2023-04-16T06:39:34.967Z,52.40
2023-04-16T06:42:02.985Z,65.00
2023-04-16T06:44:30.255Z,58.40
2023-04-16T06:46:57.490Z,65.50
2023-04-16T06:49:26.070Z,50.60
2023-04-16T06:51:53.345Z,58.70
2023-04-16T06:54:20.696Z,62.10
2023-04-16T06:56:48.065Z,60.50
2023-04-16T06:59:15.238Z,60.40
2023-04-16T07:01:42.541Z,60.70
2023-04-16T07:04:10.685Z,62.00
2023-04-16T07:06:37.931Z,59.20
2023-04-16T07:09:05.122Z,58.40
2023-04-16T07:11:32.512Z,60.60
2023-04-16T07:13:59.681Z,53.80
2023-04-16T07:16:27.066Z,51.70
2023-04-16T07:18:56.163Z,50.40
2023-04-16T07:21:23.398Z,46.90
2023-04-16T07:23:50.844Z,42.30
2023-04-16T07:26:18.487Z,41.10
2023-04-16T07:28:45.855Z,46.40
2023-04-16T07:31:13.188Z,43.00
2023-04-16T07:33:41.005Z,44.80
2023-04-16T07:36:08.420Z,43.90
2023-04-16T07:38:35.965Z,38.50
2023-04-16T07:41:03.621Z,41.80
2023-04-16T07:43:30.869Z,55.10
2023-04-16T07:45:58.177Z,48.70
2023-04-16T07:48:26.202Z,45.10
2023-04-16T07:50:53.418Z,39.90
2023-04-16T07:53:20.874Z,44.30
2023-04-16T07:55:48.568Z,44.10
2023-04-16T07:58:15.879Z,49.10
2023-04-16T08:00:43.558Z,39.90
2023-04-16T08:03:11.489Z,38.00
2023-04-16T08:05:38.800Z,35.30
2023-04-16T08:08:06.164Z,31.40
2023-04-16T08:10:34.265Z,29.30
2023-04-16T08:13:02.247Z,29.50
2023-04-16T08:15:29.707Z,28.70
2023-04-16T08:17:57.995Z,29.10
2023-04-16T08:20:27.430Z,27.60
2023-04-16T08:22:55.443Z,31.80
2023-04-16T08:25:25.428Z,25.00
2023-04-16T08:27:52.591Z,25.20
2023-04-16T08:30:20.082Z,20.50
2023-04-16T08:32:50.013Z,19.00
2023-04-16T08:35:17.614Z,17.50
2023-04-16T08:37:44.908Z,30.30
2023-04-16T08:40:13.006Z,43.20
2023-04-16T08:42:46.042Z,33.10
2023-04-16T08:45:19.657Z,45.90
2023-04-16T08:47:49.497Z,39.90
2023-04-16T08:50:18.800Z,41.70
2023-04-16T08:52:54.310Z,44.90
2023-04-16T08:55:36.802Z,36.70
2023-04-16T08:58:19.589Z,36.30
2023-04-16T09:00:48.504Z,34.20
2023-04-16T09:03:16.301Z,27.80
2023-04-16T09:05:45.182Z,22.60
2023-04-16T09:08:12.887Z,17.00
2023-04-16T09:10:40.235Z,15.30
2023-04-16T09:13:10.128Z,11.00
2023-04-16T09:15:37.699Z,10.90
2023-04-16T09:18:04.995Z,10.70
2023-04-16T09:20:32.534Z,13.70
2023-04-16T09:23:00.172Z,18.80
2023-04-16T09:25:27.591Z,11.90
2023-04-16T09:27:55.168Z,11.70
2023-04-16T09:30:24.716Z,17.00
2023-04-16T09:32:53.313Z,16.60
2023-04-16T09:35:21.299Z,16.50
2023-04-16T09:37:58.777Z,18.70
2023-04-16T09:40:28.286Z,20.10
2023-04-16T09:42:59.446Z,18.20
2023-04-16T09:45:26.703Z,17.50
2023-04-16T09:48:06.160Z,18.00
2023-04-16T09:50:33.415Z,18.70
2023-04-16T09:53:04.086Z,18.80
2023-04-16T09:55:31.417Z,16.80
2023-04-16T09:58:02.939Z,17.00
2023-04-16T10:00:31.931Z,16.30
2023-04-16T10:03:07.350Z,15.70
2023-04-16T10:05:35.259Z,18.20
2023-04-16T10:08:02.944Z,14.30
2023-04-16T10:10:31.209Z,14.30
2023-04-16T10:12:59.252Z,12.20
2023-04-16T10:15:27.465Z,13.70
2023-04-16T10:17:56.149Z,12.70
2023-04-16T10:20:24.707Z,11.70
2023-04-16T10:22:53.546Z,11.70
2023-04-16T10:25:22.089Z,11.00
2023-04-16T10:27:50.252Z,9.40
2023-04-16T10:30:19.958Z,10.80
2023-04-16T10:32:48.005Z,10.00
2023-04-16T10:35:22.236Z,9.80
2023-04-16T10:37:49.531Z,9.80
2023-04-16T10:40:25.634Z,10.50
2023-04-16T10:43:02.276Z,8.60
2023-04-16T10:45:37.951Z,8.70
2023-04-16T10:48:10.372Z,9.60
2023-04-16T10:50:38.289Z,9.20
2023-04-16T10:53:21.339Z,10.70
2023-04-16T10:56:05.060Z,9.30
2023-04-16T10:58:35.888Z,8.90
2023-04-16T11:01:11.965Z,9.10
2023-04-16T11:06:18.202Z,7.80
2023-04-16T11:08:54.576Z,7.10
2023-04-16T11:11:23.590Z,7.20
2023-04-16T11:13:56.279Z,7.00
2023-04-16T11:16:25.788Z,6.40
2023-04-16T11:18:55.606Z,7.10
2023-04-16T11:21:25.045Z,7.80
2023-04-16T11:23:53.897Z,7.60
2023-04-16T11:26:31.660Z,7.80
2023-04-16T11:29:00.634Z,7.90
2023-04-16T11:31:28.099Z,7.80
2023-04-16T11:33:57.789Z,7.70
2023-04-16T11:36:27.405Z,8.60
2023-04-16T11:39:03.343Z,7.20
2023-04-16T11:41:30.775Z,7.20
2023-04-16T11:43:58.633Z,6.60
2023-04-16T11:46:39.876Z,7.50
2023-04-16T11:49:07.918Z,6.50
2023-04-16T11:51:43.903Z,7.00
2023-04-16T11:54:20.485Z,8.60
2023-04-16T11:56:50.088Z,7.50
2023-04-16T11:59:18.596Z,9.50
2023-04-16T12:01:56.755Z,6.90
2023-04-16T12:04:27.978Z,6.80
2023-04-16T12:07:10.398Z,7.10
2023-04-16T12:09:43.466Z,6.60
2023-04-16T12:12:28.502Z,6.90
2023-04-16T12:14:57.272Z,6.40
2023-04-16T12:17:25.045Z,6.60
2023-04-16T12:19:56.126Z,6.90
2023-04-16T12:22:37.741Z,6.70
2023-04-16T12:25:11.828Z,6.50
2023-04-16T12:27:58.626Z,6.10
2023-04-16T12:30:28.018Z,6.00
2023-04-16T12:33:15.879Z,7.70
2023-04-16T12:35:44.810Z,9.40
2023-04-16T12:38:12.903Z,7.60
2023-04-16T12:41:33.847Z,7.00
2023-04-16T12:44:17.013Z,6.70
2023-04-16T12:46:45.969Z,6.10
2023-04-16T12:49:13.846Z,6.90
2023-04-16T12:51:41.550Z,5.80
2023-04-16T12:54:10.001Z,6.10
2023-04-16T12:56:37.475Z,6.30
2023-04-16T12:59:05.420Z,6.80
2023-04-16T13:01:33.098Z,8.50
2023-04-16T13:04:00.972Z,7.00
2023-04-16T13:06:28.970Z,8.60
2023-04-16T13:08:57.450Z,6.10
2023-04-16T13:11:24.978Z,40.20
2023-04-16T13:13:52.835Z,32.80
2023-04-16T13:16:20.708Z,31.70
2023-04-16T13:18:48.068Z,14.00
2023-04-16T13:21:16.152Z,8.90
2023-04-16T13:23:44.279Z,8.20
2023-04-16T13:26:13.523Z,11.80
2023-04-16T13:28:41.431Z,7.40
2023-04-16T13:31:09.689Z,22.80
2023-04-16T13:33:37.077Z,11.50
2023-04-16T13:36:04.349Z,34.50
2023-04-16T13:38:32.304Z,17.80
2023-04-16T13:40:59.693Z,9.30
2023-04-16T13:43:27.479Z,8.00
2023-04-16T13:45:56.390Z,9.50
2023-04-16T13:48:23.747Z,7.30
2023-04-16T13:50:51.292Z,7.50
2023-04-16T13:53:19.404Z,7.50
2023-04-16T13:55:47.373Z,7.00
2023-04-16T13:58:14.922Z,7.70
2023-04-16T14:00:47.671Z,6.90
2023-04-16T14:03:15.336Z,7.50
2023-04-16T14:05:43.915Z,6.80
2023-04-16T14:08:13.686Z,8.20
2023-04-16T14:10:41.513Z,7.40
2023-04-16T14:13:08.762Z,7.10
2023-04-16T14:15:37.187Z,6.80
2023-04-16T14:18:04.802Z,7.90
2023-04-16T14:20:32.427Z,6.80
2023-04-16T14:23:00.485Z,6.60
2023-04-16T14:25:28.844Z,6.20
2023-04-16T14:27:56.518Z,6.10
2023-04-16T14:30:24.289Z,7.70
2023-04-16T14:32:52.837Z,6.10
2023-04-16T14:35:21.903Z,7.00
2023-04-16T14:37:49.907Z,6.30
2023-04-16T14:40:18.322Z,6.90
2023-04-16T14:42:47.589Z,6.90
2023-04-16T14:45:15.556Z,7.30
2023-04-16T14:47:48.151Z,5.90
2023-04-16T14:50:17.400Z,6.60
2023-04-16T14:52:45.130Z,6.70
2023-04-16T14:55:12.570Z,7.50
2023-04-16T14:57:39.888Z,7.30
2023-04-16T15:00:10.262Z,7.60
2023-04-16T15:02:38.273Z,7.70
2023-04-16T15:05:09.313Z,8.40
2023-04-16T15:07:37.967Z,8.00
2023-04-16T15:10:06.343Z,7.10
2023-04-16T15:12:35.939Z,8.10
2023-04-16T15:15:03.596Z,8.60
2023-04-16T15:17:30.914Z,8.50
2023-04-16T15:19:58.906Z,7.80
2023-04-16T15:22:27.341Z,7.90
2023-04-16T15:24:54.626Z,8.10
2023-04-16T15:27:23.028Z,8.10
2023-04-16T15:29:50.530Z,7.80
2023-04-16T15:32:17.920Z,8.20
2023-04-16T15:34:47.652Z,7.40
2023-04-16T15:37:17.222Z,7.70
2023-04-16T15:39:45.563Z,7.90
2023-04-16T15:42:14.761Z,9.60
2023-04-16T15:44:43.021Z,8.90
2023-04-16T15:47:12.769Z,9.30
2023-04-16T15:49:45.059Z,9.40
2023-04-16T15:52:13.145Z,8.50
2023-04-16T15:54:41.642Z,9.00
2023-04-16T15:57:10.434Z,8.40
2023-04-16T15:59:38.599Z,8.70
2023-04-16T16:02:07.488Z,8.50
2023-04-16T16:04:35.145Z,8.30
2023-04-16T16:07:04.328Z,8.40
2023-04-16T16:09:32.101Z,8.60
2023-04-16T16:12:02.294Z,8.90
2023-04-16T16:14:29.842Z,8.90
2023-04-16T16:17:00.365Z,8.60
2023-04-16T16:19:30.142Z,9.40
2023-04-16T16:22:02.200Z,8.70
2023-04-16T16:24:30.599Z,8.20
2023-04-16T16:26:58.534Z,8.80
2023-04-16T16:29:27.010Z,7.90
2023-04-16T16:31:54.679Z,8.70
2023-04-16T16:34:22.621Z,8.80
2023-04-16T16:36:51.591Z,8.80
2023-04-16T16:39:23.251Z,8.60
2023-04-16T16:41:54.397Z,8.90
2023-04-16T16:44:23.190Z,9.00
2023-04-16T16:46:52.256Z,8.00
2023-04-16T16:49:19.550Z,8.10
2023-04-16T16:51:48.609Z,9.70
2023-04-16T16:54:17.301Z,9.30
2023-04-16T16:56:47.436Z,8.60
2023-04-16T16:59:15.711Z,11.30
2023-04-16T17:01:43.450Z,10.50
2023-04-16T17:04:11.518Z,9.10
2023-04-16T17:06:40.493Z,9.10
2023-04-16T17:09:09.502Z,8.90
2023-04-16T17:11:38.114Z,9.70
2023-04-16T17:14:06.376Z,9.70
2023-04-16T17:16:35.072Z,10.50
2023-04-16T17:19:06.022Z,9.30
2023-04-16T17:21:35.083Z,10.10
2023-04-16T17:24:03.243Z,12.50
2023-04-16T17:26:32.545Z,9.50
2023-04-16T17:29:00.711Z,9.60
2023-04-16T17:31:30.057Z,9.50
2023-04-16T17:33:58.914Z,9.60
2023-04-16T17:36:28.110Z,9.50
2023-04-16T17:38:56.110Z,10.00
2023-04-16T17:41:23.694Z,9.70
2023-04-16T17:43:52.179Z,11.50
2023-04-16T17:46:20.397Z,11.00
2023-04-16T17:48:49.894Z,10.80
2023-04-16T17:51:18.126Z,9.80
2023-04-16T17:53:48.199Z,10.10
2023-04-16T17:56:16.314Z,10.70
2023-04-16T17:58:44.329Z,9.60
2023-04-16T18:01:13.044Z,9.80
2023-04-16T18:03:41.792Z,10.20
2023-04-16T18:06:10.284Z,10.00
2023-04-16T18:08:39.302Z,10.10
2023-04-16T18:11:09.158Z,10.50
2023-04-16T18:13:37.804Z,10.80
2023-04-16T18:16:06.738Z,12.90
2023-04-16T18:18:35.045Z,12.90
2023-04-16T18:21:03.288Z,12.10
2023-04-16T18:23:30.819Z,12.90
2023-04-16T18:26:01.165Z,11.00
2023-04-16T18:28:29.708Z,10.50
2023-04-16T18:30:59.122Z,10.70
2023-04-16T18:33:50.110Z,11.60
2023-04-16T18:36:17.685Z,10.90
2023-04-16T18:38:59.400Z,10.70
2023-04-16T18:41:31.314Z,10.40
2023-04-16T18:43:59.144Z,10.70
2023-04-16T18:46:29.297Z,11.10
2023-04-16T18:49:00.952Z,13.30
2023-04-16T18:51:28.947Z,15.30
2023-04-16T18:54:02.260Z,15.00
2023-04-16T18:56:32.524Z,15.20
2023-04-16T18:59:00.852Z,14.40
2023-04-16T19:01:29.746Z,15.10
2023-04-16T19:03:58.760Z,13.50
2023-04-16T19:06:29.016Z,14.40
2023-04-16T19:08:57.185Z,14.10
2023-04-16T19:11:28.413Z,12.50
2023-04-16T19:13:56.248Z,11.80
2023-04-16T19:16:24.242Z,11.70
2023-04-16T19:18:53.356Z,18.20
2023-04-16T19:21:22.662Z,21.20
2023-04-16T19:23:49.853Z,18.20
2023-04-16T19:26:18.261Z,14.40
2023-04-16T19:28:47.051Z,14.40
2023-04-16T19:31:15.033Z,14.30
2023-04-16T19:33:44.457Z,14.90
2023-04-16T19:36:12.899Z,12.80
2023-04-16T19:38:40.989Z,13.80
2023-04-16T19:41:09.207Z,12.20
2023-04-16T19:43:38.241Z,12.60
2023-04-16T19:46:09.040Z,13.00
2023-04-16T19:48:37.723Z,11.00
2023-04-16T19:51:06.063Z,13.00
2023-04-16T19:53:36.349Z,12.90
2023-04-16T19:56:08.392Z,12.40
2023-04-16T19:58:35.856Z,13.30
2023-04-16T20:01:10.195Z,13.60
2023-04-16T20:03:38.854Z,13.90
2023-04-16T20:06:08.633Z,12.20
2023-04-16T20:08:39.995Z,12.40
2023-04-16T20:11:08.952Z,12.60
2023-04-16T20:13:39.185Z,13.80
2023-04-16T20:16:10.148Z,15.10
2023-04-16T20:18:42.334Z,14.60
2023-04-16T20:21:13.889Z,13.10
2023-04-16T20:23:42.495Z,13.00
2023-04-16T20:26:10.222Z,14.40
2023-04-16T20:28:37.671Z,15.20
2023-04-16T20:31:05.698Z,14.90
2023-04-16T20:33:33.582Z,13.40
2023-04-16T20:36:01.246Z,13.50
2023-04-16T20:38:33.139Z,13.30
2023-04-16T20:41:11.057Z,13.00
2023-04-16T20:43:41.559Z,13.00
2023-04-16T20:46:09.762Z,13.60
2023-04-16T20:48:39.479Z,13.30
2023-04-16T20:51:10.022Z,13.80
2023-04-16T20:53:37.919Z,15.00
2023-04-16T20:56:07.372Z,14.10
2023-04-16T20:58:34.622Z,14.40
2023-04-16T21:01:02.263Z,14.10
2023-04-16T21:03:29.691Z,14.60
2023-04-16T21:05:57.563Z,14.10
2023-04-16T21:08:24.976Z,13.30
2023-04-16T21:10:52.168Z,14.00
2023-04-16T21:13:21.192Z,13.80
2023-04-16T21:15:48.509Z,13.90
2023-04-16T21:18:17.614Z,15.60
2023-04-16T21:20:45.326Z,14.40
2023-04-16T21:23:12.579Z,15.20
2023-04-16T21:25:40.077Z,14.50
2023-04-16T21:28:07.715Z,14.60
2023-04-16T21:30:35.032Z,15.10
2023-04-16T21:33:02.709Z,15.60
2023-04-16T21:35:33.477Z,15.80
2023-04-16T21:38:00.669Z,15.50
2023-04-16T21:40:27.847Z,15.60
2023-04-16T21:42:55.629Z,17.10
2023-04-16T21:45:22.898Z,14.80
2023-04-16T21:47:50.224Z,13.70
2023-04-16T21:50:18.059Z,15.30
2023-04-16T21:52:46.673Z,15.30
2023-04-16T21:55:15.992Z,14.80
2023-04-16T21:57:43.725Z,15.10
2023-04-16T22:00:14.556Z,15.80
2023-04-16T22:02:43.464Z,15.70
2023-04-16T22:05:11.764Z,16.20
2023-04-16T22:07:39.282Z,15.40
2023-04-16T22:10:09.487Z,15.30
2023-04-16T22:12:40.170Z,14.80
2023-04-16T22:15:08.515Z,15.90
2023-04-16T22:17:36.718Z,14.90
2023-04-16T22:20:09.464Z,15.50
2023-04-16T22:22:36.980Z,15.10
2023-04-16T22:25:04.706Z,14.70
2023-04-16T22:27:32.003Z,15.30
2023-04-16T22:29:59.723Z,15.80
2023-04-16T22:32:27.980Z,15.20
2023-04-16T22:34:55.531Z,14.90
2023-04-16T22:37:22.971Z,14.90
2023-04-16T22:39:50.723Z,16.80
2023-04-16T22:42:17.969Z,14.40
2023-04-16T22:44:45.434Z,14.40
2023-04-16T22:47:12.579Z,15.30
2023-04-16T22:49:39.778Z,15.40
2023-04-16T22:52:07.013Z,15.20
2023-04-16T22:54:34.523Z,17.60
2023-04-16T22:57:02.385Z,14.10
2023-04-16T22:59:30.062Z,16.80
2023-04-16T23:01:57.421Z,15.90
2023-04-16T23:04:24.857Z,15.30
2023-04-16T23:06:52.971Z,15.60
2023-04-16T23:09:21.350Z,14.70
2023-04-16T23:11:48.591Z,15.70
2023-04-16T23:14:16.840Z,15.50
2023-04-16T23:16:45.140Z,15.70
2023-04-16T23:19:15.312Z,16.20
2023-04-16T23:21:42.513Z,14.90
2023-04-16T23:24:10.461Z,16.00
2023-04-16T23:26:37.744Z,14.40
2023-04-16T23:29:05.085Z,14.60
2023-04-16T23:31:33.612Z,14.40
2023-04-16T23:34:00.810Z,14.50
2023-04-16T23:36:28.013Z,13.90
2023-04-16T23:38:55.916Z,17.10
2023-04-16T23:41:24.068Z,14.80
2023-04-16T23:43:51.316Z,13.10
2023-04-16T23:46:19.177Z,13.20
2023-04-16T23:48:46.469Z,13.30
2023-04-16T23:51:13.974Z,14.30
2023-04-16T23:53:42.019Z,14.60
2023-04-16T23:56:11.543Z,14.50
2023-04-16T23:58:38.849Z,13.70
